sensor_id;sensor_type;location;lat;lon;timestamp;P1;durP1;ratioP1;P2;durP2;ratioP2
25231;SDS011;13176;51.140;6.290;2022-08-19T00:01:28;31.90;;;29.95;;
25231;SDS011;13176;51.140;6.290;2022-08-19T00:03:59;29.35;;;27.50;;
25231;SDS011;13176;51.140;6.290;2022-08-19T00:06:28;32.30;;;30.40;;
25231;SDS011;13176;51.140;6.290;2022-08-19T00:08:56;32.13;;;30.08;;
25231;SDS011;13176;51.140;6.290;2022-08-19T00:11:24;32.63;;;30.42;;
25231;SDS011;13176;51.140;6.290;2022-08-19T00:13:54;32.40;;;30.52;;
25231;SDS011;13176;51.140;6.290;2022-08-19T00:16:23;37.15;;;34.92;;
25231;SDS011;13176;51.140;6.290;2022-08-19T00:18:52;35.67;;;33.47;;
25231;SDS011;13176;51.140;6.290;2022-08-19T00:21:21;36.08;;;33.90;;
25231;SDS011;13176;51.140;6.290;2022-08-19T00:23:49;37.40;;;35.22;;
25231;SDS011;13176;51.140;6.290;2022-08-19T00:26:16;37.72;;;35.55;;
25231;SDS011;13176;51.140;6.290;2022-08-19T00:28:42;37.17;;;35.00;;
25231;SDS011;13176;51.140;6.290;2022-08-19T00:31:09;38.13;;;35.95;;
25231;SDS011;13176;51.140;6.290;2022-08-19T00:33:36;37.83;;;35.45;;
25231;SDS011;13176;51.140;6.290;2022-08-19T00:36:04;37.60;;;35.42;;
25231;SDS011;13176;51.140;6.290;2022-08-19T00:38:35;39.75;;;37.25;;
25231;SDS011;13176;51.140;6.290;2022-08-19T00:41:04;39.30;;;36.80;;
25231;SDS011;13176;51.140;6.290;2022-08-19T00:43:32;42.42;;;39.92;;
25231;SDS011;13176;51.140;6.290;2022-08-19T00:45:58;41.20;;;38.70;;
25231;SDS011;13176;51.140;6.290;2022-08-19T00:48:25;40.95;;;38.60;;
25231;SDS011;13176;51.140;6.290;2022-08-19T00:50:52;40.65;;;38.25;;
25231;SDS011;13176;51.140;6.290;2022-08-19T00:53:23;40.22;;;37.83;;
25231;SDS011;13176;51.140;6.290;2022-08-19T00:55:53;42.63;;;39.92;;
25231;SDS011;13176;51.140;6.290;2022-08-19T00:58:24;43.50;;;40.80;;
25231;SDS011;13176;51.140;6.290;2022-08-19T01:00:55;39.35;;;36.83;;
25231;SDS011;13176;51.140;6.290;2022-08-19T01:03:21;40.22;;;37.75;;
25231;SDS011;13176;51.140;6.290;2022-08-19T01:05:49;43.90;;;41.20;;
25231;SDS011;13176;51.140;6.290;2022-08-19T01:08:18;45.53;;;42.65;;
25231;SDS011;13176;51.140;6.290;2022-08-19T01:10:56;45.75;;;43.03;;
25231;SDS011;13176;51.140;6.290;2022-08-19T01:13:27;45.20;;;42.50;;
25231;SDS011;13176;51.140;6.290;2022-08-19T01:16:14;46.05;;;43.17;;
25231;SDS011;13176;51.140;6.290;2022-08-19T01:18:44;46.47;;;43.67;;
25231;SDS011;13176;51.140;6.290;2022-08-19T01:21:12;49.25;;;46.45;;
25231;SDS011;13176;51.140;6.290;2022-08-19T01:23:47;48.75;;;45.58;;
25231;SDS011;13176;51.140;6.290;2022-08-19T01:26:15;49.63;;;46.58;;
25231;SDS011;13176;51.140;6.290;2022-08-19T01:28:46;50.33;;;47.33;;
25231;SDS011;13176;51.140;6.290;2022-08-19T01:31:16;51.25;;;48.15;;
25231;SDS011;13176;51.140;6.290;2022-08-19T01:33:53;50.10;;;47.08;;
25231;SDS011;13176;51.140;6.290;2022-08-19T01:36:26;48.83;;;45.92;;
25231;SDS011;13176;51.140;6.290;2022-08-19T01:39:01;51.42;;;48.35;;
25231;SDS011;13176;51.140;6.290;2022-08-19T01:41:30;48.50;;;45.75;;
25231;SDS011;13176;51.140;6.290;2022-08-19T01:43:56;45.45;;;42.65;;
25231;SDS011;13176;51.140;6.290;2022-08-19T01:46:43;47.08;;;44.35;;
25231;SDS011;13176;51.140;6.290;2022-08-19T01:49:10;50.72;;;47.40;;
25231;SDS011;13176;51.140;6.290;2022-08-19T01:51:37;50.75;;;47.70;;
25231;SDS011;13176;51.140;6.290;2022-08-19T01:54:05;49.53;;;46.58;;
25231;SDS011;13176;51.140;6.290;2022-08-19T01:56:33;50.72;;;47.63;;
25231;SDS011;13176;51.140;6.290;2022-08-19T01:59:03;50.05;;;47.15;;
25231;SDS011;13176;51.140;6.290;2022-08-19T02:01:33;52.78;;;49.70;;
25231;SDS011;13176;51.140;6.290;2022-08-19T02:04:01;55.00;;;51.60;;
25231;SDS011;13176;51.140;6.290;2022-08-19T02:06:28;54.20;;;50.85;;
25231;SDS011;13176;51.140;6.290;2022-08-19T02:08:55;52.92;;;49.45;;
25231;SDS011;13176;51.140;6.290;2022-08-19T02:11:27;53.08;;;49.63;;
25231;SDS011;13176;51.140;6.290;2022-08-19T02:13:57;52.08;;;48.88;;
25231;SDS011;13176;51.140;6.290;2022-08-19T02:16:24;52.65;;;49.50;;
25231;SDS011;13176;51.140;6.290;2022-08-19T02:18:51;49.60;;;46.65;;
25231;SDS011;13176;51.140;6.290;2022-08-19T02:21:18;54.03;;;50.65;;
25231;SDS011;13176;51.140;6.290;2022-08-19T02:23:46;53.92;;;50.70;;
25231;SDS011;13176;51.140;6.290;2022-08-19T02:26:14;55.33;;;51.90;;
25231;SDS011;13176;51.140;6.290;2022-08-19T02:28:44;55.83;;;52.20;;
25231;SDS011;13176;51.140;6.290;2022-08-19T02:31:32;58.58;;;54.65;;
25231;SDS011;13176;51.140;6.290;2022-08-19T02:34:17;58.83;;;55.05;;
25231;SDS011;13176;51.140;6.290;2022-08-19T02:37:43;56.08;;;52.30;;
25231;SDS011;13176;51.140;6.290;2022-08-19T02:43:43;60.45;;;56.55;;
25231;SDS011;13176;51.140;6.290;2022-08-19T02:46:50;61.67;;;57.38;;
25231;SDS011;13176;51.140;6.290;2022-08-19T02:50:08;64.45;;;60.28;;
25231;SDS011;13176;51.140;6.290;2022-08-19T02:54:02;71.35;;;66.30;;
25231;SDS011;13176;51.140;6.290;2022-08-19T02:56:57;77.03;;;71.88;;
25231;SDS011;13176;51.140;6.290;2022-08-19T02:59:35;86.15;;;80.05;;
25231;SDS011;13176;51.140;6.290;2022-08-19T03:02:58;87.70;;;81.80;;
25231;SDS011;13176;51.140;6.290;2022-08-19T03:06:02;85.00;;;79.40;;
25231;SDS011;13176;51.140;6.290;2022-08-19T03:08:45;90.57;;;84.43;;
25231;SDS011;13176;51.140;6.290;2022-08-19T03:11:20;90.57;;;84.35;;
25231;SDS011;13176;51.140;6.290;2022-08-19T03:13:54;91.60;;;85.30;;
25231;SDS011;13176;51.140;6.290;2022-08-19T03:16:22;94.03;;;87.60;;
25231;SDS011;13176;51.140;6.290;2022-08-19T03:18:51;93.30;;;86.80;;
25231;SDS011;13176;51.140;6.290;2022-08-19T03:21:20;100.18;;;93.35;;
25231;SDS011;13176;51.140;6.290;2022-08-19T03:23:50;94.93;;;88.35;;
25231;SDS011;13176;51.140;6.290;2022-08-19T03:26:19;92.35;;;86.15;;
25231;SDS011;13176;51.140;6.290;2022-08-19T03:28:46;96.25;;;89.78;;
25231;SDS011;13176;51.140;6.290;2022-08-19T03:31:24;90.07;;;83.72;;
25231;SDS011;13176;51.140;6.290;2022-08-19T03:34:16;95.30;;;88.80;;
25231;SDS011;13176;51.140;6.290;2022-08-19T03:36:46;95.13;;;88.70;;
25231;SDS011;13176;51.140;6.290;2022-08-19T03:39:13;100.90;;;93.80;;
25231;SDS011;13176;51.140;6.290;2022-08-19T03:41:42;95.20;;;88.57;;
25231;SDS011;13176;51.140;6.290;2022-08-19T03:44:14;97.72;;;91.07;;
25231;SDS011;13176;51.140;6.290;2022-08-19T03:46:47;95.93;;;89.30;;
25231;SDS011;13176;51.140;6.290;2022-08-19T03:49:15;98.72;;;91.85;;
25231;SDS011;13176;51.140;6.290;2022-08-19T03:51:45;97.72;;;91.03;;
25231;SDS011;13176;51.140;6.290;2022-08-19T03:54:13;100.70;;;93.88;;
25231;SDS011;13176;51.140;6.290;2022-08-19T03:56:41;100.13;;;93.47;;
25231;SDS011;13176;51.140;6.290;2022-08-19T03:59:11;96.65;;;89.95;;
25231;SDS011;13176;51.140;6.290;2022-08-19T04:01:42;98.38;;;91.55;;
25231;SDS011;13176;51.140;6.290;2022-08-19T04:04:09;100.40;;;93.43;;
25231;SDS011;13176;51.140;6.290;2022-08-19T04:06:36;95.40;;;88.90;;
25231;SDS011;13176;51.140;6.290;2022-08-19T04:09:06;91.47;;;85.13;;
25231;SDS011;13176;51.140;6.290;2022-08-19T04:11:36;96.28;;;89.85;;
25231;SDS011;13176;51.140;6.290;2022-08-19T04:14:11;95.75;;;89.00;;
25231;SDS011;13176;51.140;6.290;2022-08-19T04:16:40;100.60;;;93.70;;
25231;SDS011;13176;51.140;6.290;2022-08-19T04:19:07;98.78;;;91.93;;
25231;SDS011;13176;51.140;6.290;2022-08-19T04:21:33;100.45;;;93.10;;
25231;SDS011;13176;51.140;6.290;2022-08-19T04:24:00;103.82;;;96.55;;
25231;SDS011;13176;51.140;6.290;2022-08-19T04:26:32;107.72;;;100.47;;
25231;SDS011;13176;51.140;6.290;2022-08-19T04:29:03;107.05;;;99.82;;
25231;SDS011;13176;51.140;6.290;2022-08-19T04:31:37;104.15;;;96.97;;
25231;SDS011;13176;51.140;6.290;2022-08-19T04:34:05;105.95;;;98.93;;
25231;SDS011;13176;51.140;6.290;2022-08-19T04:36:34;105.65;;;98.53;;
25231;SDS011;13176;51.140;6.290;2022-08-19T04:39:06;114.43;;;106.28;;
25231;SDS011;13176;51.140;6.290;2022-08-19T04:41:35;115.22;;;107.32;;
25231;SDS011;13176;51.140;6.290;2022-08-19T04:44:21;112.30;;;104.72;;
25231;SDS011;13176;51.140;6.290;2022-08-19T04:46:48;112.63;;;104.57;;
25231;SDS011;13176;51.140;6.290;2022-08-19T04:49:17;113.90;;;106.05;;
25231;SDS011;13176;51.140;6.290;2022-08-19T04:51:46;110.50;;;103.07;;
25231;SDS011;13176;51.140;6.290;2022-08-19T04:54:14;114.22;;;106.25;;
25231;SDS011;13176;51.140;6.290;2022-08-19T04:57:02;110.63;;;103.07;;
25231;SDS011;13176;51.140;6.290;2022-08-19T04:59:29;113.55;;;105.70;;
25231;SDS011;13176;51.140;6.290;2022-08-19T05:01:56;110.93;;;103.47;;
25231;SDS011;13176;51.140;6.290;2022-08-19T05:04:22;110.97;;;103.25;;
25231;SDS011;13176;51.140;6.290;2022-08-19T05:06:48;106.25;;;98.93;;
25231;SDS011;13176;51.140;6.290;2022-08-19T05:09:15;109.95;;;102.55;;
25231;SDS011;13176;51.140;6.290;2022-08-19T05:11:43;103.35;;;96.22;;
25231;SDS011;13176;51.140;6.290;2022-08-19T05:14:10;109.53;;;101.93;;
25231;SDS011;13176;51.140;6.290;2022-08-19T05:16:39;109.50;;;101.63;;
25231;SDS011;13176;51.140;6.290;2022-08-19T05:19:06;110.70;;;103.00;;
25231;SDS011;13176;51.140;6.290;2022-08-19T05:21:51;104.88;;;97.70;;
25231;SDS011;13176;51.140;6.290;2022-08-19T05:27:21;103.93;;;96.93;;
25231;SDS011;13176;51.140;6.290;2022-08-19T05:29:48;105.22;;;97.93;;
25231;SDS011;13176;51.140;6.290;2022-08-19T05:32:14;107.72;;;100.57;;
25231;SDS011;13176;51.140;6.290;2022-08-19T05:34:41;102.22;;;95.10;;
25231;SDS011;13176;51.140;6.290;2022-08-19T05:37:07;94.43;;;88.10;;
25231;SDS011;13176;51.140;6.290;2022-08-19T05:39:35;105.60;;;98.40;;
25231;SDS011;13176;51.140;6.290;2022-08-19T05:42:04;102.47;;;95.07;;
25231;SDS011;13176;51.140;6.290;2022-08-19T05:44:34;104.13;;;96.72;;
25231;SDS011;13176;51.140;6.290;2022-08-19T05:47:06;100.90;;;93.70;;
25231;SDS011;13176;51.140;6.290;2022-08-19T05:49:35;102.65;;;95.47;;
25231;SDS011;13176;51.140;6.290;2022-08-19T05:52:04;107.80;;;99.93;;
25231;SDS011;13176;51.140;6.290;2022-08-19T05:54:31;103.60;;;96.28;;
25231;SDS011;13176;51.140;6.290;2022-08-19T05:56:58;109.70;;;101.85;;
25231;SDS011;13176;51.140;6.290;2022-08-19T05:59:27;102.43;;;94.93;;
25231;SDS011;13176;51.140;6.290;2022-08-19T06:01:56;105.80;;;98.13;;
25231;SDS011;13176;51.140;6.290;2022-08-19T06:04:23;109.72;;;101.85;;
25231;SDS011;13176;51.140;6.290;2022-08-19T06:06:50;106.35;;;98.72;;
25231;SDS011;13176;51.140;6.290;2022-08-19T06:09:18;110.80;;;102.65;;
25231;SDS011;13176;51.140;6.290;2022-08-19T06:11:47;100.43;;;93.25;;
25231;SDS011;13176;51.140;6.290;2022-08-19T06:14:20;105.50;;;97.65;;
25231;SDS011;13176;51.140;6.290;2022-08-19T06:16:52;104.68;;;97.15;;
25231;SDS011;13176;51.140;6.290;2022-08-19T06:19:20;103.43;;;95.80;;
25231;SDS011;13176;51.140;6.290;2022-08-19T06:21:48;108.43;;;100.63;;
25231;SDS011;13176;51.140;6.290;2022-08-19T06:24:19;107.35;;;99.57;;
25231;SDS011;13176;51.140;6.290;2022-08-19T06:26:49;109.93;;;101.65;;
25231;SDS011;13176;51.140;6.290;2022-08-19T06:29:31;109.47;;;101.43;;
25231;SDS011;13176;51.140;6.290;2022-08-19T06:31:59;111.57;;;102.95;;
25231;SDS011;13176;51.140;6.290;2022-08-19T06:34:27;114.97;;;105.72;;
25231;SDS011;13176;51.140;6.290;2022-08-19T06:36:56;115.90;;;106.97;;
25231;SDS011;13176;51.140;6.290;2022-08-19T06:39:28;113.13;;;104.05;;
25231;SDS011;13176;51.140;6.290;2022-08-19T06:41:57;114.03;;;104.72;;
25231;SDS011;13176;51.140;6.290;2022-08-19T06:44:28;114.35;;;104.95;;
25231;SDS011;13176;51.140;6.290;2022-08-19T06:47:09;111.60;;;102.40;;
25231;SDS011;13176;51.140;6.290;2022-08-19T06:49:40;103.97;;;95.70;;
25231;SDS011;13176;51.140;6.290;2022-08-19T06:52:07;99.35;;;91.65;;
25231;SDS011;13176;51.140;6.290;2022-08-19T06:54:33;95.28;;;87.57;;
25231;SDS011;13176;51.140;6.290;2022-08-19T06:57:20;90.68;;;83.22;;
25231;SDS011;13176;51.140;6.290;2022-08-19T06:59:47;88.15;;;81.13;;
25231;SDS011;13176;51.140;6.290;2022-08-19T07:02:13;86.38;;;79.32;;
25231;SDS011;13176;51.140;6.290;2022-08-19T07:04:40;84.45;;;77.55;;
25231;SDS011;13176;51.140;6.290;2022-08-19T07:07:08;89.10;;;81.75;;
25231;SDS011;13176;51.140;6.290;2022-08-19T07:09:46;86.93;;;80.20;;
25231;SDS011;13176;51.140;6.290;2022-08-19T07:12:23;89.10;;;82.05;;
25231;SDS011;13176;51.140;6.290;2022-08-19T07:14:51;86.93;;;80.13;;
25231;SDS011;13176;51.140;6.290;2022-08-19T07:17:19;89.93;;;82.97;;
25231;SDS011;13176;51.140;6.290;2022-08-19T07:19:46;87.25;;;80.75;;
25231;SDS011;13176;51.140;6.290;2022-08-19T07:22:14;91.78;;;84.50;;
25231;SDS011;13176;51.140;6.290;2022-08-19T07:24:42;86.57;;;80.00;;
25231;SDS011;13176;51.140;6.290;2022-08-19T07:27:16;93.13;;;85.93;;
25231;SDS011;13176;51.140;6.290;2022-08-19T07:29:50;91.25;;;84.13;;
25231;SDS011;13176;51.140;6.290;2022-08-19T07:32:22;87.15;;;80.45;;
25231;SDS011;13176;51.140;6.290;2022-08-19T07:34:51;78.18;;;72.07;;
25231;SDS011;13176;51.140;6.290;2022-08-19T07:37:18;82.93;;;76.55;;
25231;SDS011;13176;51.140;6.290;2022-08-19T07:39:45;85.13;;;78.85;;
25231;SDS011;13176;51.140;6.290;2022-08-19T07:42:11;94.20;;;87.28;;
25231;SDS011;13176;51.140;6.290;2022-08-19T07:44:40;86.53;;;79.93;;
25231;SDS011;13176;51.140;6.290;2022-08-19T07:47:07;99.45;;;92.30;;
25231;SDS011;13176;51.140;6.290;2022-08-19T07:49:53;104.70;;;97.13;;
25231;SDS011;13176;51.140;6.290;2022-08-19T07:52:20;101.68;;;94.55;;
25231;SDS011;13176;51.140;6.290;2022-08-19T07:54:46;99.30;;;92.13;;
25231;SDS011;13176;51.140;6.290;2022-08-19T07:57:13;97.63;;;90.63;;
25231;SDS011;13176;51.140;6.290;2022-08-19T07:59:40;96.15;;;89.05;;
25231;SDS011;13176;51.140;6.290;2022-08-19T08:02:06;100.93;;;93.57;;
25231;SDS011;13176;51.140;6.290;2022-08-19T08:04:34;101.85;;;94.32;;
25231;SDS011;13176;51.140;6.290;2022-08-19T08:07:19;101.97;;;94.55;;
25231;SDS011;13176;51.140;6.290;2022-08-19T08:10:11;99.63;;;92.25;;
25231;SDS011;13176;51.140;6.290;2022-08-19T08:12:49;99.55;;;92.15;;
25231;SDS011;13176;51.140;6.290;2022-08-19T08:15:35;76.15;;;70.13;;
25231;SDS011;13176;51.140;6.290;2022-08-19T08:18:07;79.65;;;74.10;;
25231;SDS011;13176;51.140;6.290;2022-08-19T08:20:34;73.75;;;68.50;;
25231;SDS011;13176;51.140;6.290;2022-08-19T08:23:01;69.93;;;64.88;;
25231;SDS011;13176;51.140;6.290;2022-08-19T08:25:46;68.88;;;63.08;;
25231;SDS011;13176;51.140;6.290;2022-08-19T08:28:15;58.42;;;54.05;;
25231;SDS011;13176;51.140;6.290;2022-08-19T08:30:43;61.25;;;56.70;;
25231;SDS011;13176;51.140;6.290;2022-08-19T08:33:11;47.90;;;44.30;;
25231;SDS011;13176;51.140;6.290;2022-08-19T08:35:39;44.08;;;40.97;;
25231;SDS011;13176;51.140;6.290;2022-08-19T08:38:11;42.50;;;39.25;;
25231;SDS011;13176;51.140;6.290;2022-08-19T08:45:53;34.65;;;32.25;;
25231;SDS011;13176;51.140;6.290;2022-08-19T08:48:39;36.55;;;33.67;;
25231;SDS011;13176;51.140;6.290;2022-08-19T08:51:23;35.42;;;32.47;;
25231;SDS011;13176;51.140;6.290;2022-08-19T08:54:01;36.25;;;33.47;;
25231;SDS011;13176;51.140;6.290;2022-08-19T08:56:35;38.50;;;35.35;;
25231;SDS011;13176;51.140;6.290;2022-08-19T08:59:05;35.55;;;32.85;;
25231;SDS011;13176;51.140;6.290;2022-08-19T09:01:36;39.13;;;36.13;;
25231;SDS011;13176;51.140;6.290;2022-08-19T09:04:04;35.05;;;31.80;;
25231;SDS011;13176;51.140;6.290;2022-08-19T09:06:34;36.95;;;34.00;;
25231;SDS011;13176;51.140;6.290;2022-08-19T09:17:17;35.42;;;32.83;;
25231;SDS011;13176;51.140;6.290;2022-08-19T09:22:19;34.67;;;32.13;;
25231;SDS011;13176;51.140;6.290;2022-08-19T09:24:52;37.25;;;34.47;;
25231;SDS011;13176;51.140;6.290;2022-08-19T09:27:20;39.30;;;36.40;;
25231;SDS011;13176;51.140;6.290;2022-08-19T09:30:09;40.15;;;36.80;;
25231;SDS011;13176;51.140;6.290;2022-08-19T09:32:40;45.55;;;42.33;;
25231;SDS011;13176;51.140;6.290;2022-08-19T09:35:09;38.55;;;35.65;;
25231;SDS011;13176;51.140;6.290;2022-08-19T09:37:37;42.55;;;39.10;;
25231;SDS011;13176;51.140;6.290;2022-08-19T09:40:05;41.05;;;37.85;;
25231;SDS011;13176;51.140;6.290;2022-08-19T09:42:36;38.78;;;35.92;;
25231;SDS011;13176;51.140;6.290;2022-08-19T09:45:15;40.60;;;37.13;;
25231;SDS011;13176;51.140;6.290;2022-08-19T09:47:43;39.90;;;36.85;;
25231;SDS011;13176;51.140;6.290;2022-08-19T09:50:12;39.58;;;36.75;;
25231;SDS011;13176;51.140;6.290;2022-08-19T09:52:41;40.72;;;37.83;;
25231;SDS011;13176;51.140;6.290;2022-08-19T09:55:23;40.00;;;36.67;;
25231;SDS011;13176;51.140;6.290;2022-08-19T09:57:58;35.50;;;33.10;;
25231;SDS011;13176;51.140;6.290;2022-08-19T10:00:26;37.38;;;34.75;;
25231;SDS011;13176;51.140;6.290;2022-08-19T10:02:53;33.97;;;31.60;;
25231;SDS011;13176;51.140;6.290;2022-08-19T10:05:19;38.17;;;35.42;;
25231;SDS011;13176;51.140;6.290;2022-08-19T10:08:07;35.60;;;33.05;;
25231;SDS011;13176;51.140;6.290;2022-08-19T10:10:43;41.17;;;38.38;;
25231;SDS011;13176;51.140;6.290;2022-08-19T10:13:12;43.10;;;40.00;;
25231;SDS011;13176;51.140;6.290;2022-08-19T10:15:40;41.53;;;38.63;;
25231;SDS011;13176;51.140;6.290;2022-08-19T10:18:14;42.75;;;39.83;;
25231;SDS011;13176;51.140;6.290;2022-08-19T10:20:45;44.00;;;40.95;;
25231;SDS011;13176;51.140;6.290;2022-08-19T10:23:17;40.08;;;37.28;;
25231;SDS011;13176;51.140;6.290;2022-08-19T10:25:46;40.00;;;37.15;;
25231;SDS011;13176;51.140;6.290;2022-08-19T10:28:13;45.90;;;42.78;;
25231;SDS011;13176;51.140;6.290;2022-08-19T10:30:40;41.38;;;38.38;;
25231;SDS011;13176;51.140;6.290;2022-08-19T10:33:07;42.85;;;39.70;;
25231;SDS011;13176;51.140;6.290;2022-08-19T10:35:36;42.05;;;39.05;;
25231;SDS011;13176;51.140;6.290;2022-08-19T10:38:22;35.67;;;33.10;;
25231;SDS011;13176;51.140;6.290;2022-08-19T10:40:57;38.05;;;35.42;;
25231;SDS011;13176;51.140;6.290;2022-08-19T10:43:24;39.97;;;37.25;;
25231;SDS011;13176;51.140;6.290;2022-08-19T10:45:54;37.90;;;35.28;;
25231;SDS011;13176;51.140;6.290;2022-08-19T10:48:22;40.05;;;37.35;;
25231;SDS011;13176;51.140;6.290;2022-08-19T10:50:49;33.58;;;31.30;;
25231;SDS011;13176;51.140;6.290;2022-08-19T10:53:34;28.67;;;26.42;;
25231;SDS011;13176;51.140;6.290;2022-08-19T10:56:01;24.90;;;23.13;;
25231;SDS011;13176;51.140;6.290;2022-08-19T10:58:46;26.17;;;24.08;;
25231;SDS011;13176;51.140;6.290;2022-08-19T11:01:12;27.60;;;25.63;;
25231;SDS011;13176;51.140;6.290;2022-08-19T11:03:39;28.23;;;26.23;;
25231;SDS011;13176;51.140;6.290;2022-08-19T11:06:06;30.83;;;28.70;;
25231;SDS011;13176;51.140;6.290;2022-08-19T11:08:35;27.00;;;25.23;;
25231;SDS011;13176;51.140;6.290;2022-08-19T11:11:04;30.48;;;28.52;;
25231;SDS011;13176;51.140;6.290;2022-08-19T11:13:34;29.67;;;27.60;;
25231;SDS011;13176;51.140;6.290;2022-08-19T11:16:05;22.52;;;20.85;;
25231;SDS011;13176;51.140;6.290;2022-08-19T11:18:53;23.65;;;21.67;;
25231;SDS011;13176;51.140;6.290;2022-08-19T11:21:26;21.83;;;20.23;;
25231;SDS011;13176;51.140;6.290;2022-08-19T11:23:58;27.48;;;25.55;;
25231;SDS011;13176;51.140;6.290;2022-08-19T11:26:27;24.52;;;22.83;;
25231;SDS011;13176;51.140;6.290;2022-08-19T11:28:57;28.55;;;26.10;;
25231;SDS011;13176;51.140;6.290;2022-08-19T11:31:26;32.67;;;29.95;;
25231;SDS011;13176;51.140;6.290;2022-08-19T11:33:57;31.23;;;29.10;;
25231;SDS011;13176;51.140;6.290;2022-08-19T11:36:28;22.23;;;20.35;;
25231;SDS011;13176;51.140;6.290;2022-08-19T11:38:59;28.60;;;26.75;;
25231;SDS011;13176;51.140;6.290;2022-08-19T11:41:26;27.77;;;25.80;;
25231;SDS011;13176;51.140;6.290;2022-08-19T11:43:52;20.73;;;19.25;;
25231;SDS011;13176;51.140;6.290;2022-08-19T11:46:21;26.60;;;24.77;;
25231;SDS011;13176;51.140;6.290;2022-08-19T11:48:50;26.88;;;25.17;;
25231;SDS011;13176;51.140;6.290;2022-08-19T11:51:18;22.63;;;21.13;;
25231;SDS011;13176;51.140;6.290;2022-08-19T11:53:48;23.98;;;22.33;;
25231;SDS011;13176;51.140;6.290;2022-08-19T11:56:23;27.70;;;25.70;;
25231;SDS011;13176;51.140;6.290;2022-08-19T11:58:52;24.08;;;22.50;;
25231;SDS011;13176;51.140;6.290;2022-08-19T12:01:21;21.13;;;19.73;;
25231;SDS011;13176;51.140;6.290;2022-08-19T12:03:52;20.65;;;19.42;;
25231;SDS011;13176;51.140;6.290;2022-08-19T12:06:30;18.00;;;16.48;;
25231;SDS011;13176;51.140;6.290;2022-08-19T12:09:03;19.85;;;18.35;;
25231;SDS011;13176;51.140;6.290;2022-08-19T12:11:33;23.13;;;21.57;;
25231;SDS011;13176;51.140;6.290;2022-08-19T12:14:03;15.00;;;13.80;;
25231;SDS011;13176;51.140;6.290;2022-08-19T12:17:05;18.55;;;17.27;;
25231;SDS011;13176;51.140;6.290;2022-08-19T12:19:33;18.17;;;16.73;;
25231;SDS011;13176;51.140;6.290;2022-08-19T12:22:00;14.02;;;12.88;;
25231;SDS011;13176;51.140;6.290;2022-08-19T12:24:47;11.73;;;11.00;;
25231;SDS011;13176;51.140;6.290;2022-08-19T12:27:17;12.75;;;11.88;;
25231;SDS011;13176;51.140;6.290;2022-08-19T12:30:04;11.82;;;11.00;;
25231;SDS011;13176;51.140;6.290;2022-08-19T12:32:33;13.93;;;12.85;;
25231;SDS011;13176;51.140;6.290;2022-08-19T12:35:05;12.43;;;11.55;;
25231;SDS011;13176;51.140;6.290;2022-08-19T12:37:47;13.30;;;12.40;;
25231;SDS011;13176;51.140;6.290;2022-08-19T12:40:22;12.95;;;11.85;;
25231;SDS011;13176;51.140;6.290;2022-08-19T12:42:51;9.23;;;8.52;;
25231;SDS011;13176;51.140;6.290;2022-08-19T12:45:18;8.40;;;7.80;;
25231;SDS011;13176;51.140;6.290;2022-08-19T12:47:45;10.20;;;8.05;;
25231;SDS011;13176;51.140;6.290;2022-08-19T12:50:14;10.38;;;9.27;;
25231;SDS011;13176;51.140;6.290;2022-08-19T12:52:41;11.80;;;11.02;;
25231;SDS011;13176;51.140;6.290;2022-08-19T12:55:08;8.65;;;7.55;;
25231;SDS011;13176;51.140;6.290;2022-08-19T12:57:37;8.52;;;7.80;;
25231;SDS011;13176;51.140;6.290;2022-08-19T13:02:35;8.02;;;7.40;;
25231;SDS011;13176;51.140;6.290;2022-08-19T13:05:05;9.18;;;8.40;;
25231;SDS011;13176;51.140;6.290;2022-08-19T13:07:35;8.30;;;7.78;;
25231;SDS011;13176;51.140;6.290;2022-08-19T13:10:02;9.75;;;8.82;;
25231;SDS011;13176;51.140;6.290;2022-08-19T13:12:29;8.80;;;8.00;;
25231;SDS011;13176;51.140;6.290;2022-08-19T13:14:56;9.68;;;9.05;;
25231;SDS011;13176;51.140;6.290;2022-08-19T13:17:23;9.98;;;9.23;;
25231;SDS011;13176;51.140;6.290;2022-08-19T13:19:50;12.25;;;11.18;;
25231;SDS011;13176;51.140;6.290;2022-08-19T13:22:17;14.57;;;13.65;;
25231;SDS011;13176;51.140;6.290;2022-08-19T13:24:43;16.00;;;15.00;;
25231;SDS011;13176;51.140;6.290;2022-08-19T13:27:12;13.02;;;12.18;;
25231;SDS011;13176;51.140;6.290;2022-08-19T13:29:40;12.88;;;11.80;;
25231;SDS011;13176;51.140;6.290;2022-08-19T13:32:25;10.77;;;9.98;;
25231;SDS011;13176;51.140;6.290;2022-08-19T13:35:11;11.40;;;10.60;;
25231;SDS011;13176;51.140;6.290;2022-08-19T13:37:42;11.75;;;10.85;;
25231;SDS011;13176;51.140;6.290;2022-08-19T13:40:16;10.73;;;9.98;;
25231;SDS011;13176;51.140;6.290;2022-08-19T13:42:45;12.38;;;11.68;;
25231;SDS011;13176;51.140;6.290;2022-08-19T13:45:14;10.27;;;9.50;;
25231;SDS011;13176;51.140;6.290;2022-08-19T13:47:46;11.50;;;10.57;;
25231;SDS011;13176;51.140;6.290;2022-08-19T13:50:14;9.50;;;8.82;;
25231;SDS011;13176;51.140;6.290;2022-08-19T13:52:46;10.48;;;9.38;;
25231;SDS011;13176;51.140;6.290;2022-08-19T13:55:14;9.27;;;8.35;;
25231;SDS011;13176;51.140;6.290;2022-08-19T13:57:52;9.18;;;8.38;;
25231;SDS011;13176;51.140;6.290;2022-08-19T14:00:20;9.05;;;8.05;;
25231;SDS011;13176;51.140;6.290;2022-08-19T14:02:50;9.77;;;9.18;;
25231;SDS011;13176;51.140;6.290;2022-08-19T14:05:19;8.95;;;8.38;;
25231;SDS011;13176;51.140;6.290;2022-08-19T14:07:46;9.60;;;8.80;;
25231;SDS011;13176;51.140;6.290;2022-08-19T14:10:15;9.20;;;8.55;;
25231;SDS011;13176;51.140;6.290;2022-08-19T14:12:42;9.50;;;8.48;;
25231;SDS011;13176;51.140;6.290;2022-08-19T14:15:09;8.77;;;7.97;;
25231;SDS011;13176;51.140;6.290;2022-08-19T14:17:37;8.73;;;7.88;;
25231;SDS011;13176;51.140;6.290;2022-08-19T14:20:05;9.90;;;8.50;;
25231;SDS011;13176;51.140;6.290;2022-08-19T14:22:37;9.20;;;8.50;;
25231;SDS011;13176;51.140;6.290;2022-08-19T14:25:05;8.90;;;8.13;;
25231;SDS011;13176;51.140;6.290;2022-08-19T14:27:35;9.52;;;8.52;;
25231;SDS011;13176;51.140;6.290;2022-08-19T14:30:06;10.07;;;9.38;;
25231;SDS011;13176;51.140;6.290;2022-08-19T14:32:36;12.48;;;11.80;;
25231;SDS011;13176;51.140;6.290;2022-08-19T14:35:03;12.32;;;11.43;;
25231;SDS011;13176;51.140;6.290;2022-08-19T14:37:31;11.60;;;10.85;;
25231;SDS011;13176;51.140;6.290;2022-08-19T14:40:10;12.52;;;11.82;;
25231;SDS011;13176;51.140;6.290;2022-08-19T14:42:39;12.57;;;11.75;;
25231;SDS011;13176;51.140;6.290;2022-08-19T14:45:08;10.50;;;9.82;;
25231;SDS011;13176;51.140;6.290;2022-08-19T14:47:37;17.70;;;16.60;;
25231;SDS011;13176;51.140;6.290;2022-08-19T14:50:06;16.30;;;15.13;;
25231;SDS011;13176;51.140;6.290;2022-08-19T14:52:40;12.93;;;12.25;;
25231;SDS011;13176;51.140;6.290;2022-08-19T14:55:07;12.68;;;12.00;;
25231;SDS011;13176;51.140;6.290;2022-08-19T14:57:34;13.43;;;12.55;;
25231;SDS011;13176;51.140;6.290;2022-08-19T15:00:00;13.50;;;12.75;;
25231;SDS011;13176;51.140;6.290;2022-08-19T15:02:27;11.27;;;10.68;;
25231;SDS011;13176;51.140;6.290;2022-08-19T15:05:00;11.38;;;10.80;;
25231;SDS011;13176;51.140;6.290;2022-08-19T15:07:28;11.73;;;11.07;;
25231;SDS011;13176;51.140;6.290;2022-08-19T15:09:55;11.88;;;11.13;;
25231;SDS011;13176;51.140;6.290;2022-08-19T15:12:23;14.13;;;13.43;;